Time;durP1;ratioP1;P1;durP2;ratioP2;P2;SDS_P1;SDS_P2;PMS_P1;PMS_P2;Temp;Humidity;BMP_temperature;BMP_pressure;BME280_temperature;BME280_humidity;BME280_pressure;Samples;Min_cycle;Max_cycle;Signal;HPM_P1;HPM_P2
2022/09/25 00:00:46;;;;;;;30.42;18.65;;;;;;;-148.88;100.00;75777.22;5017694;28;20480;-87
2022/09/25 00:03:13;;;;;;;27.90;17.08;;;;;;;-148.88;100.00;75779.25;5018659;28;20475;-86
2022/09/25 00:05:40;;;;;;;31.45;18.23;;;;;;;-148.88;100.00;75781.28;5016942;28;20099;-86
2022/09/25 00:08:06;;;;;;;28.98;17.48;;;;;;;-148.88;100.00;75785.34;5016933;28;20026;-86
2022/09/25 00:10:32;;;;;;;31.10;17.38;;;;;;;-148.88;100.00;75785.34;5017003;28;20037;-87
2022/09/25 00:12:57;;;;;;;28.23;16.75;;;;;;;-148.88;100.00;75789.41;5017112;28;20025;-87
2022/09/25 00:15:23;;;;;;;28.92;16.00;;;;;;;-148.88;100.00;75793.47;5019458;28;20030;-85
2022/09/25 00:17:49;;;;;;;27.50;16.20;;;;;;;-148.88;100.00;75793.47;5018355;28;20029;-87
2022/09/25 00:20:17;;;;;;;31.38;16.85;;;;;;;-148.88;100.00;75789.41;5019371;28;20021;-88
2022/09/25 00:22:42;;;;;;;27.50;14.70;;;;;;;-148.88;100.00;75793.47;5019716;28;20021;-86
2022/09/25 00:25:14;;;;;;;27.67;14.85;;;;;;;-148.88;100.00;75797.53;5018556;28;20049;-87
2022/09/25 00:27:41;;;;;;;27.70;14.88;;;;;;;-148.88;100.00;75787.38;5017844;28;20022;-85
2022/09/25 00:30:07;;;;;;;25.63;13.02;;;;;;;-148.88;100.00;75783.31;5016923;28;20547;-86
2022/09/25 00:32:33;;;;;;;21.70;12.18;;;;;;;-148.88;100.00;75785.34;5017053;28;20117;-86
2022/09/25 00:34:58;;;;;;;24.58;11.63;;;;;;;-148.88;100.00;75785.34;5016070;28;20042;-87
2022/09/25 00:37:24;;;;;;;24.05;11.50;;;;;;;-148.88;100.00;75789.41;5016081;28;20026;-87
2022/09/25 00:39:50;;;;;;;20.05;11.23;;;;;;;-148.88;100.00;75785.34;5015743;28;20022;-86
2022/09/25 00:42:19;;;;;;;24.23;11.50;;;;;;;-148.88;100.00;75781.28;5015965;28;20026;-86
2022/09/25 00:44:56;;;;;;;20.02;10.40;;;;;;;-148.88;100.00;75785.34;5015323;28;20403;-86
2022/09/25 00:47:42;;;;;;;19.63;10.25;;;;;;;-148.88;100.00;75781.28;5015329;28;20061;-86
2022/09/25 00:50:27;;;;;;;20.02;10.02;;;;;;;-148.88;100.00;75793.47;5015560;28;20040;-86
2022/09/25 00:52:57;;;;;;;19.45;9.60;;;;;;;-148.88;100.00;75783.31;5015885;28;20065;-86
2022/09/25 00:55:23;;;;;;;22.10;10.40;;;;;;;-148.88;100.00;75789.41;5016007;28;20032;-87
2022/09/25 00:57:52;;;;;;;21.38;9.48;;;;;;;-148.88;100.00;75783.31;5015295;28;20117;-87
2022/09/25 01:00:18;;;;;;;16.00;8.98;;;;;;;-148.88;100.00;75781.28;5015095;28;20080;-87
2022/09/25 01:02:51;;;;;;;16.48;8.82;;;;;;;-148.88;100.00;75765.03;5015368;28;20113;-87
2022/09/25 01:05:22;;;;;;;19.73;8.55;;;;;;;-148.88;100.00;75781.28;5015972;28;20033;-86
2022/09/25 01:07:48;;;;;;;16.05;8.45;;;;;;;-148.88;100.00;75781.28;5014866;28;20076;-87
2022/09/25 01:10:16;;;;;;;16.95;8.02;;;;;;;-148.88;100.00;75785.34;5014468;28;20025;-87
2022/09/25 01:12:45;;;;;;;19.90;8.10;;;;;;;-148.88;100.00;75789.41;5015021;28;20030;-86
2022/09/25 01:15:13;;;;;;;14.48;7.18;;;;;;;-148.88;100.00;75789.41;5015295;28;20060;-86
2022/09/25 01:17:41;;;;;;;18.00;7.55;;;;;;;-148.88;100.00;75797.53;5015759;28;20069;-86
2022/09/25 01:20:07;;;;;;;16.27;6.95;;;;;;;-148.88;100.00;75795.50;5015894;28;20080;-85
2022/09/25 01:22:57;;;;;;;18.10;7.65;;;;;;;-148.88;100.00;75797.53;5016257;28;20026;-86
2022/09/25 01:25:45;;;;;;;22.58;8.60;;;;;;;-148.88;100.00;75801.59;5015227;28;20026;-87
2022/09/25 01:28:48;;;;;;;22.02;7.43;;;;;;;-148.88;100.00;75789.41;5016826;28;20025;-86
2022/09/25 01:31:26;;;;;;;14.63;6.70;;;;;;;-148.88;100.00;75789.41;5014668;28;20045;-87
2022/09/25 01:34:00;;;;;;;21.42;7.30;;;;;;;-148.88;100.00;75793.47;5014440;28;20030;-85
2022/09/25 01:36:33;;;;;;;13.52;6.45;;;;;;;-148.88;100.00;75787.38;5014954;28;20030;-87
2022/09/25 01:39:26;;;;;;;15.38;6.53;;;;;;;-148.88;100.00;75787.38;5016189;28;20025;-86
2022/09/25 01:42:08;;;;;;;18.10;6.65;;;;;;;-148.88;100.00;75785.34;5007688;28;20042;-87
2022/09/25 01:44:41;;;;;;;15.63;6.35;;;;;;;-148.88;100.00;75773.16;5014852;28;20033;-87
2022/09/25 01:47:13;;;;;;;15.05;6.00;;;;;;;-148.88;100.00;75773.16;5015185;28;20480;-87
2022/09/25 01:49:47;;;;;;;17.05;6.40;;;;;;;-148.88;100.00;75777.22;5023656;28;20032;-86
2022/09/25 01:52:32;;;;;;;;;;;;;;;-148.88;100.00;75781.28;5038161;28;20010;-88
2022/09/25 01:55:22;;;;;;;14.25;6.22;;;;;;;-148.88;100.00;75787.38;5012050;28;20019;-87
2022/09/25 01:57:58;;;;;;;14.52;6.72;;;;;;;-148.88;100.00;75789.41;4999532;28;20068;-87
2022/09/25 02:00:24;;;;;;;17.30;6.80;;;;;;;-148.88;100.00;75785.34;5017162;28;20030;-87
2022/09/25 02:03:07;;;;;;;17.05;6.65;;;;;;;-148.88;100.00;75791.44;5016254;28;20121;-87
2022/09/25 02:05:48;;;;;;;18.83;6.43;;;;;;;-148.88;100.00;75791.44;5017156;28;20026;-87
2022/09/25 02:08:29;;;;;;;13.20;6.07;;;;;;;-148.88;100.00;75803.63;5016743;28;20025;-87
2022/09/25 02:11:03;;;;;;;20.35;7.20;;;;;;;-148.88;100.00;75809.72;5015705;28;20477;-87
2022/09/25 02:13:37;;;;;;;15.10;6.70;;;;;;;-148.88;100.00;75813.78;5015702;28;20113;-87
2022/09/25 02:16:09;;;;;;;16.58;6.78;;;;;;;-148.88;100.00;75813.78;5016501;28;20116;-87
2022/09/25 02:21:52;;;;;;;17.83;7.15;;;;;;;-148.88;100.00;75828.00;5006398;28;20037;-87
2022/09/25 02:24:28;;;;;;;17.15;7.40;;;;;;;-148.88;100.00;75830.03;5016597;28;20040;-86
2022/09/25 02:26:55;;;;;;;18.27;7.63;;;;;;;-148.88;100.00;75830.03;5017469;28;20026;-86
2022/09/25 02:29:20;;;;;;;16.13;6.55;;;;;;;-148.88;100.00;75834.09;5015997;28;20029;-87
2022/09/25 02:31:57;;;;;;;19.58;7.32;;;;;;;-148.88;100.00;75838.16;5013545;28;20026;-85
2022/09/25 02:34:22;;;;;;;16.42;6.80;;;;;;;-148.88;100.00;75842.22;5014145;28;20124;-86
2022/09/25 02:36:48;;;;;;;20.73;7.13;;;;;;;-148.88;100.00;75846.28;5014285;28;20487;-86
2022/09/25 02:39:17;;;;;;;14.55;7.20;;;;;;;-148.88;100.00;75848.31;5014617;28;20018;-86
2022/09/25 02:42:08;;;;;;;15.27;7.25;;;;;;;-148.88;100.00;75852.38;5014418;28;20071;-87
2022/09/25 02:45:04;;;;;;;14.13;6.93;;;;;;;-148.88;100.00;75852.38;5015625;28;20029;-87
2022/09/25 02:47:53;;;;;;;14.80;7.15;;;;;;;-148.88;100.00;75854.41;5014356;28;20087;-87
2022/09/25 02:50:40;;;;;;;18.92;7.38;;;;;;;-148.88;100.00;75858.47;5014259;28;20048;-86
2022/09/25 02:53:17;;;;;;;20.05;7.47;;;;;;;-148.88;100.00;75850.34;5014402;28;20018;-87
2022/09/25 02:56:25;;;;;;;17.42;7.20;;;;;;;-148.88;100.00;75858.47;5014242;28;20030;-86
2022/09/25 02:58:55;;;;;;;14.32;6.45;;;;;;;-148.88;100.00;75852.38;5004508;28;20026;-86
2022/09/25 03:01:23;;;;;;;14.50;6.82;;;;;;;-148.88;100.00;75848.31;5014962;28;20056;-87
2022/09/25 03:03:56;;;;;;;13.25;6.55;;;;;;;-148.88;100.00;75844.25;5014186;28;20472;-86
2022/09/25 03:06:23;;;;;;;17.00;6.43;;;;;;;-148.88;100.00;75846.28;5013710;28;20025;-86
2022/09/25 03:08:53;;;;;;;14.57;6.03;;;;;;;-148.88;100.00;75840.19;5013405;28;20037;-86
2022/09/25 03:11:25;;;;;;;15.38;6.25;;;;;;;-148.88;100.00;75846.28;5014354;28;20097;-87
2022/09/25 03:14:01;;;;;;;12.98;6.00;;;;;;;-148.88;100.00;75842.22;5014080;28;20022;-87
2022/09/25 03:16:40;;;;;;;16.45;6.72;;;;;;;-148.88;100.00;75842.22;5013866;28;20502;-87
2022/09/25 03:19:05;;;;;;;14.68;6.30;;;;;;;-148.88;100.00;75846.28;5014202;28;20484;-87
2022/09/25 03:21:31;;;;;;;17.23;6.78;;;;;;;-148.88;100.00;75838.16;5014753;28;20072;-87
2022/09/25 03:23:57;;;;;;;16.30;6.75;;;;;;;-148.88;100.00;75842.22;5014298;28;20140;-87
2022/09/25 03:26:23;;;;;;;15.75;7.10;;;;;;;-148.88;100.00;75836.13;5014179;28;20036;-86
2022/09/25 03:28:49;;;;;;;18.25;7.38;;;;;;;-148.88;100.00;75834.09;5014016;28;20495;-86
2022/09/25 03:31:15;;;;;;;19.25;7.50;;;;;;;-148.88;100.00;75850.34;5013937;28;20022;-87
2022/09/25 03:33:42;;;;;;;15.70;7.90;;;;;;;-148.88;100.00;75846.28;5017245;28;20033;-86
2022/09/25 03:36:10;;;;;;;14.57;7.57;;;;;;;-148.88;100.00;75850.34;5017483;28;20034;-87
2022/09/25 03:38:36;;;;;;;10.93;6.78;;;;;;;-148.88;100.00;75846.28;5017880;28;20048;-85
2022/09/25 03:41:02;;;;;;;13.85;6.47;;;;;;;-148.88;100.00;75846.28;5016850;28;20022;-87
2022/09/25 03:43:29;;;;;;;14.25;7.07;;;;;;;-148.88;100.00;75846.28;5016275;28;20342;-87
2022/09/25 03:45:54;;;;;;;15.38;7.40;;;;;;;-148.88;100.00;75862.53;5016505;28;20072;-86
2022/09/25 03:48:20;;;;;;;13.50;7.13;;;;;;;-148.88;100.00;75870.66;5016966;28;20030;-87
2022/09/25 03:50:46;;;;;;;13.52;6.53;;;;;;;-148.88;100.00;75866.59;5016184;28;20080;-84
2022/09/25 03:53:11;;;;;;;18.55;6.63;;;;;;;-148.88;100.00;75874.72;5015291;28;20017;-86
2022/09/25 03:55:36;;;;;;;14.57;6.53;;;;;;;-148.88;100.00;75870.66;5016301;28;20041;-86
2022/09/25 03:58:02;;;;;;;15.48;6.65;;;;;;;-148.88;100.00;75878.78;5016510;28;20057;-86
2022/09/25 04:00:27;;;;;;;16.35;6.78;;;;;;;-148.88;100.00;75893.00;5015110;28;20033;-86
2022/09/25 04:02:52;;;;;;;14.20;6.55;;;;;;;-148.88;100.00;75890.97;5017190;28;20032;-86
2022/09/25 04:05:19;;;;;;;15.23;5.78;;;;;;;-148.88;100.00;75901.13;5015576;28;20029;-86
2022/09/25 04:07:45;;;;;;;12.98;6.07;;;;;;;-148.88;100.00;75890.97;5015508;28;20484;-86
2022/09/25 04:10:10;;;;;;;15.25;5.85;;;;;;;-148.88;100.00;75899.09;5015286;28;20022;-85
2022/09/25 04:12:35;;;;;;;13.05;5.55;;;;;;;-148.88;100.00;75899.09;5014937;28;20026;-85
2022/09/25 04:15:01;;;;;;;15.40;6.40;;;;;;;-148.88;100.00;75899.09;5015245;28;20072;-86
2022/09/25 04:17:27;;;;;;;16.52;6.43;;;;;;;-148.88;100.00;75907.22;5015195;28;20026;-86
2022/09/25 04:19:53;;;;;;;11.88;5.10;;;;;;;-148.88;100.00;75917.38;5016468;28;20049;-85
2022/09/25 04:22:18;;;;;;;13.20;5.55;;;;;;;-148.88;100.00;75919.41;5017411;28;20373;-85
2022/09/25 04:24:49;;;;;;;9.07;5.13;;;;;;;-148.88;100.00;75917.38;5016297;28;20025;-85
2022/09/25 04:27:25;;;;;;;7.80;4.93;;;;;;;-148.88;100.00;75919.41;5015567;28;20026;-86
2022/09/25 04:29:50;;;;;;;12.10;4.97;;;;;;;-148.88;100.00;75919.41;5015735;28;20030;-86
2022/09/25 04:35:00;;;;;;;13.02;5.68;;;;;;;-148.88;100.00;75931.59;5016939;28;20451;-86
2022/09/25 04:37:26;;;;;;;12.05;5.40;;;;;;;-148.88;100.00;75931.59;5015175;28;20049;-86
2022/09/25 04:39:57;;;;;;;10.68;5.10;;;;;;;-148.88;100.00;75933.63;5014989;28;20029;-87
2022/09/25 04:42:24;;;;;;;12.43;5.78;;;;;;;-148.88;100.00;75943.78;5015720;28;20029;-86
2022/09/25 04:44:57;;;;;;;13.52;5.78;;;;;;;-148.88;100.00;75933.63;5014442;28;20483;-87
2022/09/25 04:47:30;;;;;;;15.43;5.40;;;;;;;-148.88;100.00;75941.75;5017028;28;20030;-86
2022/09/25 04:50:12;;;;;;;14.63;4.90;;;;;;;-148.88;100.00;75947.84;5015357;28;20026;-85
2022/09/25 04:52:41;;;;;;;12.50;5.00;;;;;;;-148.88;100.00;75945.81;5014586;28;20076;-87
2022/09/25 04:55:09;;;;;;;11.95;5.05;;;;;;;-148.88;100.00;75951.91;5014888;28;20030;-86
2022/09/25 04:57:36;;;;;;;10.18;5.13;;;;;;;-148.88;100.00;75955.97;5018418;28;20095;-84
2022/09/25 05:00:04;;;;;;;17.38;5.97;;;;;;;-148.88;100.00;75953.94;4998986;28;20030;-85
2022/09/25 05:02:31;;;;;;;15.18;5.35;;;;;;;-148.88;100.00;75945.81;5015465;28;20044;-87
2022/09/25 05:04:57;;;;;;;9.18;2.88;;;;;;;-148.88;100.00;75953.94;5014220;28;20030;-86
2022/09/25 05:07:22;;;;;;;9.15;4.70;;;;;;;-148.88;100.00;75949.88;5014652;28;20057;-85
2022/09/25 05:09:48;;;;;;;12.70;4.93;;;;;;;-148.88;100.00;75947.84;5013829;28;20058;-86
2022/09/25 05:12:14;;;;;;;14.43;5.20;;;;;;;-148.88;100.00;75960.03;5013996;28;20391;-86
2022/09/25 05:14:41;;;;;;;13.82;5.57;;;;;;;-148.88;100.00;75966.13;5014647;28;20499;-84
2022/09/25 05:17:13;;;;;;;11.95;5.18;;;;;;;-148.88;100.00;75974.25;5015447;28;20041;-85
2022/09/25 05:19:38;;;;;;;14.13;5.20;;;;;;;-148.88;100.00;75972.22;5014224;28;20034;-85
2022/09/25 05:22:12;;;;;;;17.92;5.40;;;;;;;-148.88;100.00;75976.28;5014815;28;20040;-85
2022/09/25 05:24:38;;;;;;;13.15;5.30;;;;;;;-148.88;100.00;75972.22;5014689;28;20025;-85
2022/09/25 05:27:03;;;;;;;20.42;5.45;;;;;;;-148.88;100.00;75984.41;5013781;28;20022;-85
2022/09/25 05:29:30;;;;;;;15.48;5.68;;;;;;;-148.88;100.00;75984.41;5013589;28;20029;-85
2022/09/25 05:31:56;;;;;;;9.10;4.45;;;;;;;-148.88;100.00;75966.13;4997374;28;20148;-87
2022/09/25 05:34:21;;;;;;;15.60;5.30;;;;;;;-148.88;100.00;75976.28;5014442;28;20128;-85
2022/09/25 05:36:46;;;;;;;13.60;5.30;;;;;;;-148.88;100.00;75988.47;5013984;28;20041;-86
2022/09/25 05:39:13;;;;;;;12.73;5.43;;;;;;;-148.88;100.00;75970.19;5014719;28;20381;-87
2022/09/25 05:41:40;;;;;;;11.27;5.47;;;;;;;-148.88;100.00;75972.22;5015120;28;20076;-86
2022/09/25 05:44:08;;;;;;;10.57;5.75;;;;;;;-148.88;100.00;75984.41;5015596;28;20033;-85
2022/09/25 05:46:38;;;;;;;18.20;6.15;;;;;;;-148.88;100.00;75984.41;5017213;28;20571;-86
2022/09/25 05:49:04;;;;;;;14.60;6.10;;;;;;;-148.88;100.00;75972.22;5015491;28;20029;-86
2022/09/25 05:51:30;;;;;;;15.10;5.72;;;;;;;-148.88;100.00;75970.19;5016223;28;20116;-85
2022/09/25 05:53:55;;;;;;;13.32;6.13;;;;;;;-148.88;100.00;75976.28;5014679;28;20116;-86
2022/09/25 05:56:23;;;;;;;11.70;5.72;;;;;;;-148.88;100.00;75976.28;5012684;28;20057;-85
2022/09/25 05:58:50;;;;;;;15.30;6.85;;;;;;;-148.88;100.00;75972.22;5013169;28;20018;-85
2022/09/25 06:01:16;;;;;;;16.48;7.13;;;;;;;-148.88;100.00;75984.41;5015114;28;20468;-86
2022/09/25 06:03:41;;;;;;;14.25;7.03;;;;;;;-148.88;100.00;75984.41;5016229;28;20022;-84
2022/09/25 06:06:07;;;;;;;14.30;6.78;;;;;;;-148.88;100.00;75992.53;5016079;28;20029;-84
2022/09/25 06:08:34;;;;;;;14.45;6.43;;;;;;;-148.88;100.00;76004.72;5015704;28;20022;-84
2022/09/25 06:11:04;;;;;;;18.30;6.93;;;;;;;-148.88;100.00;76000.66;5013939;28;20145;-86
2022/09/25 06:13:35;;;;;;;15.98;6.43;;;;;;;-148.88;100.00;76000.66;5013393;28;20026;-86
2022/09/25 06:16:12;;;;;;;18.25;6.88;;;;;;;-148.88;100.00;75998.63;5013533;28;20116;-85
2022/09/25 06:18:37;;;;;;;14.77;6.78;;;;;;;-148.88;100.00;76023.00;5016998;28;20109;-85
2022/09/25 06:21:04;;;;;;;15.27;6.63;;;;;;;-148.88;100.00;76010.81;5015870;28;20062;-86
2022/09/25 06:23:30;;;;;;;14.98;6.60;;;;;;;-148.88;100.00;76004.72;5018450;28;20376;-85
2022/09/25 06:26:01;;;;;;;13.55;6.05;;;;;;;-148.88;100.00;76016.91;5018153;28;20475;-86
2022/09/25 06:28:27;;;;;;;18.27;6.40;;;;;;;-148.88;100.00;76016.91;5017397;28;20037;-85
2022/09/25 06:30:53;;;;;;;15.68;6.30;;;;;;;-148.88;100.00;76008.78;5017593;28;20026;-85
2022/09/25 06:33:18;;;;;;;13.52;6.45;;;;;;;-148.88;100.00;76004.72;5016618;28;20032;-86
2022/09/25 06:35:46;;;;;;;15.73;6.45;;;;;;;-148.88;100.00;76002.69;5017796;28;20392;-86
2022/09/25 06:38:13;;;;;;;16.42;6.50;;;;;;;-148.88;100.00;76010.81;5018086;28;20030;-85
2022/09/25 06:40:40;;;;;;;13.80;6.63;;;;;;;-148.88;100.00;76006.75;5017266;28;20017;-86
2022/09/25 06:43:09;;;;;;;14.38;7.05;;;;;;;-148.88;100.00;76000.66;5015073;28;20193;-85
2022/09/25 06:45:38;;;;;;;15.63;7.10;;;;;;;-148.88;100.00;76012.84;5015452;28;20021;-85
2022/09/25 06:48:07;;;;;;;13.57;6.43;;;;;;;-148.88;100.00;76008.78;5015377;28;20036;-85
2022/09/25 06:50:51;;;;;;;21.05;7.63;;;;;;;-148.88;100.00;76006.75;5015135;28;20054;-85
2022/09/25 06:53:25;;;;;;;12.57;4.30;;;;;;;-148.88;100.00;75996.59;5015478;28;20128;-86
2022/09/25 06:55:51;;;;;;;15.25;5.97;;;;;;;-148.88;100.00;75982.38;5015685;28;20065;-85
2022/09/25 06:58:19;;;;;;;15.68;6.15;;;;;;;-148.88;100.00;75974.25;5016327;28;20029;-85
2022/09/25 07:00:46;;;;;;;14.55;5.88;;;;;;;-148.88;100.00;75980.34;5014716;28;20026;-86
2022/09/25 07:05:59;;;;;;;13.27;6.60;;;;;;;-148.88;100.00;75964.09;5016696;28;20553;-85
2022/09/25 07:08:24;;;;;;;12.30;5.75;;;;;;;-148.88;100.00;75968.16;5016917;28;20034;-85
2022/09/25 07:10:52;;;;;;;12.77;6.18;;;;;;;-148.88;100.00;75974.25;5016988;28;20026;-85
2022/09/25 07:13:23;;;;;;;16.35;6.80;;;;;;;-148.88;100.00;75966.13;5017652;28;20061;-85
2022/09/25 07:15:53;;;;;;;16.67;6.82;;;;;;;-148.88;100.00;75964.09;5019578;28;20109;-85
2022/09/25 07:18:25;;;;;;;12.40;5.95;;;;;;;-148.88;100.00;75962.06;5017847;28;20183;-84
2022/09/25 07:20:52;;;;;;;14.55;6.05;;;;;;;-148.88;100.00;75962.06;5017061;28;20022;-83
2022/09/25 07:23:19;;;;;;;15.55;6.50;;;;;;;-148.88;100.00;75953.94;5018011;28;20504;-85
2022/09/25 07:25:45;;;;;;;14.52;5.80;;;;;;;-148.88;100.00;75955.97;5016844;28;20172;-87
2022/09/25 07:28:18;;;;;;;13.85;5.75;;;;;;;-148.88;100.00;75955.97;5018907;28;20056;-86
2022/09/25 07:30:45;;;;;;;12.00;5.72;;;;;;;-148.88;100.00;75960.03;5017219;28;20026;-85
2022/09/25 07:33:12;;;;;;;13.50;6.15;;;;;;;-148.88;100.00;75953.94;5018095;28;20041;-85
2022/09/25 07:35:38;;;;;;;15.07;6.20;;;;;;;-148.88;100.00;75962.06;5018545;28;20431;-85
2022/09/25 07:38:09;;;;;;;15.23;5.72;;;;;;;-148.88;100.00;75955.97;5016503;28;20034;-86
2022/09/25 07:40:34;;;;;;;12.10;5.63;;;;;;;-148.88;100.00;75933.63;4999328;28;20084;-87
2022/09/25 07:43:01;;;;;;;14.30;5.30;;;;;;;-148.88;100.00;75921.44;5015691;28;20038;-85
2022/09/25 07:45:27;;;;;;;13.90;5.75;;;;;;;-148.88;100.00;75919.41;5016693;28;20129;-87
2022/09/25 07:48:02;;;;;;;13.35;5.93;;;;;;;-148.88;100.00;75911.28;5017600;28;20476;-85
2022/09/25 07:50:30;;;;;;;15.52;6.18;;;;;;;-148.88;100.00;75899.09;5002724;28;20038;-86
2022/09/25 07:52:56;;;;;;;16.17;6.47;;;;;;;-148.88;100.00;75890.97;5018250;28;20056;-86
2022/09/25 07:55:22;;;;;;;12.75;5.60;;;;;;;-148.88;100.00;75888.94;5015690;28;20062;-86
2022/09/25 07:57:49;;;;;;;15.20;5.88;;;;;;;-148.88;100.00;75882.84;5017656;28;20061;-84
2022/09/25 08:00:16;;;;;;;15.70;5.78;;;;;;;-148.88;100.00;75882.84;5028805;22;20016;-74
2022/09/25 08:02:42;;;;;;;14.98;6.00;;;;;;;-148.88;100.00;75874.72;4997562;28;20116;-74
2022/09/25 08:05:09;;;;;;;14.65;5.25;;;;;;;-148.88;100.00;75862.53;5013261;28;20121;-75
2022/09/25 08:07:34;;;;;;;15.35;5.45;;;;;;;-148.88;100.00;75852.38;5013704;28;20140;-75
2022/09/25 08:10:00;;;;;;;12.73;5.55;;;;;;;-148.88;100.00;75854.41;5014738;28;20022;-74
2022/09/25 08:12:26;;;;;;;14.93;5.32;;;;;;;-148.88;100.00;75850.34;5013443;28;20030;-74
2022/09/25 08:14:52;;;;;;;11.63;5.07;;;;;;;-148.88;100.00;75836.13;5014762;28;20034;-74
2022/09/25 08:17:21;;;;;;;13.98;4.75;;;;;;;-148.88;100.00;75834.09;5014762;28;20030;-74
2022/09/25 08:19:46;;;;;;;11.60;4.57;;;;;;;-148.88;100.00;75825.97;5014169;28;20026;-74
2022/09/25 08:22:11;;;;;;;12.52;5.10;;;;;;;-148.88;100.00;75819.88;5014642;28;20392;-75
2022/09/25 08:24:37;;;;;;;15.98;5.30;;;;;;;-148.88;100.00;75815.81;5014737;28;20104;-74
2022/09/25 08:27:03;;;;;;;14.43;6.35;;;;;;;-148.88;100.00;75805.66;5014658;28;20022;-75
2022/09/25 08:29:29;;;;;;;14.10;7.10;;;;;;;-148.88;100.00;75793.47;5014539;28;20034;-74
2022/09/25 08:31:55;;;;;;;10.77;5.00;;;;;;;-148.88;100.00;75777.22;5013211;28;20080;-75
2022/09/25 08:34:23;;;;;;;15.77;5.75;;;;;;;-148.88;100.00;75773.16;5013148;28;20050;-73
2022/09/25 08:36:49;;;;;;;15.38;6.25;;;;;;;-148.88;100.00;75740.66;5012844;28;20021;-73
2022/09/25 08:39:15;;;;;;;16.85;6.28;;;;;;;-148.88;100.00;75730.50;5012927;28;20195;-73
2022/09/25 08:41:59;;;;;;;15.05;5.20;;;;;;;-148.88;100.00;75728.47;5013014;28;20085;-75
2022/09/25 08:44:27;;;;;;;12.23;6.05;;;;;;;-148.88;100.00;75683.78;5013058;28;20484;-73
2022/09/25 08:50:14;;;;;;;11.18;4.85;;;;;;;-148.88;100.00;75649.25;5014003;28;20049;-75
2022/09/25 08:52:51;;;;;;;10.90;4.68;;;;;;;-148.88;100.00;75596.44;5012789;28;20406;-74
2022/09/25 08:56:13;;;;;;;12.15;4.28;;;;;;;-148.88;100.00;75566.00;5012723;28;20021;-74
2022/09/25 08:58:16;;;;;;;;;;;;;;;-148.88;97.40;75561.94;5014328;28;20404;-74
2022/09/25 09:00:44;;;;;;;11.27;3.47;;;;;;;-148.88;97.83;75570.03;5013868;28;20012;-74
2022/09/25 09:03:15;;;;;;;6.53;2.85;;;;;;;-148.88;98.67;75553.81;5014447;28;20030;-74
2022/09/25 09:05:45;;;;;;;9.88;3.03;;;;;;;-148.88;98.25;75539.59;5012808;28;20022;-74
2022/09/25 09:08:24;;;;;;;8.18;2.55;;;;;;;-148.88;97.97;75523.34;5013811;28;20025;-74
2022/09/25 09:11:44;;;;;;;7.85;2.20;;;;;;;-148.88;95.79;75501.00;5014011;28;20049;-74
2022/09/25 09:14:20;;;;;;;8.05;2.00;;;;;;;-148.88;93.00;75484.75;4959882;28;20112;-75
2022/09/25 09:16:54;;;;;;;7.30;1.92;;;;;;;-148.88;91.34;75454.28;5012291;28;20404;-74
2022/09/25 09:19:19;;;;;;;13.80;2.20;;;;;;;-148.88;90.97;75472.56;5013654;28;20021;-72
2022/09/25 09:22:00;;;;;;;6.95;1.92;;;;;;;-148.88;90.36;75436.00;5013580;28;20021;-72
2022/09/25 09:24:50;;;;;;;4.28;1.80;;;;;;;-148.88;88.48;75375.06;5012903;28;20080;-72
2022/09/25 09:27:36;;;;;;;8.13;1.77;;;;;;;-148.88;87.94;75364.91;5012059;28;20411;-72
2022/09/25 09:30:11;;;;;;;4.60;1.50;;;;;;;-148.88;86.39;75346.63;5012584;28;20029;-72
2022/09/25 09:32:42;;;;;;;6.07;1.58;;;;;;;-148.88;84.62;75310.06;5011986;28;20026;-72
2022/09/25 09:35:22;;;;;;;8.30;1.55;;;;;;;-148.88;82.61;75330.38;5013238;28;20033;-71
2022/09/25 09:37:56;;;;;;;4.38;1.40;;;;;;;-148.88;81.67;75346.63;5013204;28;20026;-72
2022/09/25 09:40:53;;;;;;;11.13;1.90;;;;;;;-148.88;84.44;75354.75;5011725;28;20051;-72
2022/09/25 09:43:42;;;;;;;7.88;2.00;;;;;;;-148.88;85.20;75350.69;5013012;28;20025;-72
2022/09/25 09:46:26;;;;;;;4.85;1.48;;;;;;;-148.88;86.89;75395.38;5011739;28;20451;-72
2022/09/25 09:49:11;;;;;;;5.28;1.45;;;;;;;-148.88;86.77;75438.03;5012725;28;20480;-72
2022/09/25 09:51:43;;;;;;;5.22;1.48;;;;;;;-148.88;87.11;75464.44;5012980;28;20069;-73
2022/09/25 09:54:20;;;;;;;5.50;1.65;;;;;;;-148.88;87.65;75484.75;5012804;28;20403;-72
2022/09/25 09:56:48;;;;;;;7.60;1.60;;;;;;;-148.88;89.11;75488.81;5012799;28;20027;-72
2022/09/25 09:59:18;;;;;;;4.57;1.45;;;;;;;-148.88;86.52;75436.00;5012811;28;20069;-73
2022/09/25 10:01:50;;;;;;;5.55;1.40;;;;;;;-148.88;85.60;75383.19;5012661;28;20030;-73
2022/09/25 10:04:19;;;;;;;5.13;1.63;;;;;;;-148.88;82.73;75348.66;5012992;28;20038;-73
2022/09/25 10:06:50;;;;;;;8.43;2.00;;;;;;;-148.88;80.00;75289.75;5012971;28;20026;-75
2022/09/25 10:09:16;;;;;;;5.22;1.55;;;;;;;-148.88;81.98;75224.78;5011586;28;20110;-74
2022/09/25 10:11:44;;;;;;;5.93;1.30;;;;;;;-148.88;74.76;75192.28;5012913;28;20475;-74
2022/09/25 10:14:19;;;;;;;6.60;1.63;;;;;;;-148.88;77.75;75232.91;5012826;28;20397;-74
2022/09/25 10:16:47;;;;;;;5.90;1.50;;;;;;;-148.88;82.99;75346.63;5012894;28;20053;-74
2022/09/25 10:19:22;;;;;;;6.72;2.00;;;;;;;-148.88;84.89;75375.06;5012716;28;20018;-74
2022/09/25 10:21:57;;;;;;;8.40;1.90;;;;;;;-148.88;86.49;75405.53;5012676;28;20049;-75
2022/09/25 10:25:01;;;;;;;5.32;1.50;;;;;;;-148.88;84.94;75431.94;5013142;28;20025;-75
2022/09/25 10:27:48;;;;;;;7.60;1.60;;;;;;;-148.88;84.79;75446.16;4999525;28;20136;-74
2022/09/25 10:30:19;;;;;;;6.45;1.92;;;;;;;-148.88;85.13;75436.00;5012877;28;20472;-74
2022/09/25 10:32:55;;;;;;;8.57;1.90;;;;;;;-148.88;86.35;75442.09;5011664;28;20029;-74
2022/09/25 10:35:25;;;;;;;6.63;1.95;;;;;;;-148.88;86.43;75438.03;5011188;28;20495;-73
2022/09/25 10:37:56;;;;;;;6.22;2.08;;;;;;;-148.88;86.20;75446.16;5012473;28;20037;-73
2022/09/25 10:40:33;;;;;;;6.40;1.83;;;;;;;-148.88;86.20;75440.06;5011073;28;20476;-73
2022/09/25 10:43:11;;;;;;;4.95;1.70;;;;;;;-148.88;86.91;75433.97;5016440;28;20026;-73
2022/09/25 10:45:39;;;;;;;4.50;1.63;;;;;;;-148.88;85.03;75413.66;5015155;28;20030;-73
2022/09/25 10:51:11;;;;;;;3.53;1.60;;;;;;;-148.88;83.51;75415.69;5015836;28;20049;-73
2022/09/25 10:53:36;;;;;;;4.43;1.48;;;;;;;-148.88;82.93;75377.09;5014506;28;20460;-73
2022/09/25 10:56:06;;;;;;;6.90;1.60;;;;;;;-148.88;81.11;75297.88;5015200;28;20104;-72
2022/09/25 10:58:38;;;;;;;4.43;1.52;;;;;;;-148.88;77.44;75271.50;5015328;28;20072;-73
2022/09/25 11:01:05;;;;;;;5.40;1.67;;;;;;;-148.88;75.54;75196.34;5014987;28;20121;-73
2022/09/25 11:03:34;;;;;;;5.97;1.50;;;;;;;-148.88;73.44;75135.41;5015951;28;20022;-73
2022/09/25 11:06:19;;;;;;;5.22;1.63;;;;;;;-148.88;71.48;75104.94;4995071;28;20026;-73
2022/09/25 11:08:48;;;;;;;4.15;1.35;;;;;;;-148.88;70.03;75178.06;5011584;28;20026;-74
2022/09/25 11:11:20;;;;;;;5.00;1.65;;;;;;;-148.88;71.92;75232.91;5002648;28;20084;-73
2022/09/25 11:13:49;;;;;;;2.92;1.30;;;;;;;-148.88;71.42;75232.91;5015777;28;20068;-73
2022/09/25 11:16:15;;;;;;;6.13;1.38;;;;;;;-148.88;73.27;75247.13;5015974;28;20057;-73
2022/09/25 11:18:50;;;;;;;5.75;1.42;;;;;;;-148.88;76.61;75269.47;5014455;28;20022;-73
2022/09/25 11:21:58;;;;;;;6.57;1.15;;;;;;;-148.88;71.34;75310.06;5015706;28;20037;-73
2022/09/25 11:24:47;;;;;;;3.20;1.00;;;;;;;-148.88;72.13;75297.88;5015793;28;20494;-73
2022/09/25 11:27:25;;;;;;;4.80;1.15;;;;;;;-148.88;73.00;75310.06;5015752;28;20022;-73
2022/09/25 11:30:15;;;;;;;5.57;1.42;;;;;;;-148.88;75.69;75322.25;5015733;28;20025;-73
2022/09/25 11:32:50;;;;;;;6.13;1.98;;;;;;;-148.88;77.38;75322.25;5015584;28;20018;-73
2022/09/25 11:35:23;;;;;;;3.20;1.52;;;;;;;-148.88;77.28;75348.66;5015670;28;20025;-73
2022/09/25 11:38:02;;;;;;;5.57;1.60;;;;;;;-148.88;77.90;75346.63;5015615;28;20095;-73